Time;durP1;ratioP1;P1;durP2;ratioP2;P2;SDS_P1;SDS_P2;PMS_P1;PMS_P2;Temp;Humidity;BMP_temperature;BMP_pressure;BME280_temperature;BME280_humidity;BME280_pressure;Samples;Min_cycle;Max_cycle;Signal;HPM_P1;HPM_P2
2023/09/20 00:03:04;;;;;;;3.00;2.10;;;24.00;54.00;;;;;;229569;1263;22249;-51
2023/09/20 00:08:07;;;;;;;5.10;3.20;;;23.90;53.80;;;;;;229553;1255;22349;-50
2023/09/20 00:13:10;;;;;;;2.90;1.90;;;23.90;53.90;;;;;;229381;1263;297014;-52
2023/09/20 00:18:13;;;;;;;2.70;2.20;;;23.90;54.00;;;;;;229554;1261;22969;-52
2023/09/20 00:23:21;;;;;;;2.60;2.30;;;23.90;54.10;;;;;;222288;1264;22565;-51
2023/09/20 00:28:24;;;;;;;2.30;2.10;;;23.80;54.10;;;;;;229688;1263;22290;-51
2023/09/20 00:33:29;;;;;;;3.00;2.00;;;23.80;54.40;;;;;;229632;1260;22379;-52
2023/09/20 00:38:32;;;;;;;5.10;2.30;;;23.70;53.90;;;;;;229653;1248;22258;-51
2023/09/20 00:43:35;;;;;;;2.60;2.20;;;23.80;54.00;;;;;;229597;1256;22427;-50
2023/09/20 00:48:39;;;;;;;2.30;2.10;;;23.80;54.00;;;;;;229603;1264;22274;-49
2023/09/20 00:53:43;;;;;;;2.90;2.50;;;23.80;53.90;;;;;;229566;1260;22272;-51
2023/09/20 00:58:46;;;;;;;3.20;2.90;;;23.80;54.00;;;;;;229611;1260;22283;-51
2023/09/20 01:03:48;;;;;;;2.80;2.60;;;23.80;53.40;;;;;;229628;1251;22282;-50
2023/09/20 01:08:53;;;;;;;4.60;2.60;;;23.80;53.50;;;;;;229579;1253;23227;-48
2023/09/20 01:13:59;;;;;;;3.20;2.30;;;23.80;54.10;;;;;;229609;1263;23101;-50
2023/09/20 01:19:04;;;;;;;3.00;2.20;;;23.70;53.90;;;;;;229680;1258;22258;-53
2023/09/20 01:24:08;;;;;;;4.20;2.80;;;23.70;54.00;;;;;;229603;1250;22290;-48
2023/09/20 01:29:12;;;;;;;2.60;2.40;;;23.70;54.30;;;;;;229596;1247;22346;-53
2023/09/20 01:34:15;;;;;;;2.20;2.00;;;23.70;54.30;;;;;;229667;1251;22240;-49
2023/09/20 01:39:17;;;;;;;3.10;2.70;;;23.70;54.40;;;;;;229560;1248;22267;-48
2023/09/20 01:44:22;;;;;;;3.10;2.50;;;23.70;53.70;;;;;;229516;1251;22256;-50
2023/09/20 01:49:25;;;;;;;2.50;2.30;;;23.60;53.50;;;;;;229483;1253;22287;-51
2023/09/20 01:54:28;;;;;;;3.90;2.30;;;23.60;53.50;;;;;;229477;1248;22317;-50
2023/09/20 01:59:31;;;;;;;2.70;2.10;;;23.60;53.90;;;;;;229525;1248;22261;-50
2023/09/20 02:04:34;;;;;;;2.40;2.20;;;23.60;53.90;;;;;;229537;1251;22291;-50
2023/09/20 02:09:36;;;;;;;2.40;2.20;;;23.60;53.80;;;;;;229638;1248;22342;-50
2023/09/20 02:14:41;;;;;;;2.80;2.30;;;23.60;53.70;;;;;;229601;1251;23121;-48
2023/09/20 02:19:45;;;;;;;4.60;2.40;;;23.60;54.30;;;;;;229633;1247;22995;-50
2023/09/20 02:24:49;;;;;;;4.50;2.40;;;23.50;53.70;;;;;;229642;1253;22322;-49
2023/09/20 02:29:53;;;;;;;3.80;2.40;;;23.50;53.40;;;;;;229609;1247;22280;-51
2023/09/20 02:34:56;;;;;;;4.20;2.50;;;23.50;53.70;;;;;;229667;1251;22271;-47
2023/09/20 02:39:59;;;;;;;2.80;2.50;;;23.50;53.60;;;;;;229725;1248;22277;-49
2023/09/20 02:45:03;;;;;;;4.80;2.30;;;23.40;53.30;;;;;;229700;1253;22352;-48
2023/09/20 02:50:13;;;;;;;3.10;2.20;;;23.50;53.60;;;;;;222300;1249;22936;-48
2023/09/20 02:55:20;;;;;;;2.40;2.20;;;23.40;53.90;;;;;;229561;1251;24077;-50
2023/09/20 03:00:27;;;;;;;2.60;2.20;;;23.30;53.60;;;;;;229681;1248;22449;-53
2023/09/20 03:05:32;;;;;;;3.60;2.40;;;23.40;53.90;;;;;;229668;1247;22254;-51
2023/09/20 03:10:47;;;;;;;2.50;2.30;;;23.40;53.70;;;;;;229626;1251;22963;-54
2023/09/20 03:15:54;;;;;;;5.70;2.70;;;23.40;53.60;;;;;;227799;1250;25380;-52
2023/09/20 03:21:05;;;;;;;4.80;4.20;;;23.40;53.30;;;;;;221150;1254;22550;-51
2023/09/20 03:26:09;;;;;;;3.80;2.70;;;23.20;53.60;;;;;;229733;1247;23169;-53
2023/09/20 03:31:15;;;;;;;4.10;2.70;;;23.20;54.00;;;;;;229732;1248;22271;-52
2023/09/20 03:36:20;;;;;;;3.00;2.70;;;23.30;53.80;;;;;;229677;1251;22270;-49
2023/09/20 03:41:24;;;;;;;3.70;2.50;;;23.30;53.60;;;;;;229661;1263;23056;-51
2023/09/20 03:46:27;;;;;;;3.40;2.80;;;23.30;53.50;;;;;;229714;1247;23182;-51
2023/09/20 03:51:31;;;;;;;3.40;2.50;;;23.30;53.50;;;;;;229619;1248;22392;-48
2023/09/20 03:56:35;;;;;;;2.50;2.30;;;23.30;53.60;;;;;;229605;1248;22702;-51
2023/09/20 04:01:38;;;;;;;2.80;2.60;;;23.30;53.40;;;;;;229563;1263;22277;-51
2023/09/20 04:06:44;;;;;;;2.60;2.40;;;23.30;53.50;;;;;;229709;1249;22266;-49
2023/09/20 04:11:47;;;;;;;3.10;2.70;;;23.30;53.20;;;;;;229608;1249;22778;-51
2023/09/20 04:16:50;;;;;;;3.40;2.60;;;23.30;53.30;;;;;;229570;1256;22266;-51
2023/09/20 04:21:53;;;;;;;3.10;2.50;;;23.30;53.20;;;;;;229651;1248;22920;-51
2023/09/20 04:26:55;;;;;;;3.60;2.30;;;23.30;53.30;;;;;;229581;1263;22274;-54
2023/09/20 04:31:58;;;;;;;6.40;2.70;;;23.20;53.30;;;;;;229568;1254;22498;-51
2023/09/20 04:37:02;;;;;;;3.80;2.60;;;23.30;53.30;;;;;;229571;1251;22284;-50
2023/09/20 04:42:10;;;;;;;2.90;2.60;;;23.20;53.30;;;;;;229680;1247;22414;-50
2023/09/20 04:47:14;;;;;;;3.00;2.50;;;23.20;53.20;;;;;;229611;1254;22370;-51
2023/09/20 04:52:17;;;;;;;3.30;2.70;;;23.20;53.20;;;;;;229544;1247;22292;-51
2023/09/20 04:57:20;;;;;;;2.40;2.20;;;23.10;53.00;;;;;;229604;1257;22618;-49
2023/09/20 05:02:23;;;;;;;3.80;2.40;;;23.20;52.60;;;;;;229543;1258;22675;-52
2023/09/20 05:07:27;;;;;;;3.10;2.30;;;23.10;53.20;;;;;;229630;1262;23183;-52
2023/09/20 05:12:30;;;;;;;3.40;2.60;;;23.10;52.90;;;;;;229683;1247;22237;-49
2023/09/20 05:17:34;;;;;;;1.80;1.70;;;23.10;53.20;;;;;;229535;1248;23590;-51
2023/09/20 05:22:37;;;;;;;3.40;2.40;;;23.20;53.00;;;;;;229624;1252;22283;-51
2023/09/20 05:27:40;;;;;;;2.60;2.40;;;23.10;52.80;;;;;;229461;1247;22310;-51
2023/09/20 05:32:43;;;;;;;3.10;2.50;;;23.10;53.60;;;;;;229619;1248;24040;-52
2023/09/20 05:37:46;;;;;;;2.80;2.30;;;23.00;53.00;;;;;;229551;1249;22282;-51
2023/09/20 05:42:50;;;;;;;3.80;2.60;;;23.10;53.60;;;;;;229549;1248;22271;-51
2023/09/20 05:47:54;;;;;;;2.40;2.20;;;23.10;53.00;;;;;;229642;1247;22269;-54
2023/09/20 05:52:57;;;;;;;2.20;2.00;;;23.00;53.30;;;;;;229620;1247;22992;-55
2023/09/20 05:58:02;;;;;;;2.60;2.30;;;23.10;53.10;;;;;;229611;1248;22262;-54
2023/09/20 06:03:05;;;;;;;3.70;2.00;;;23.20;53.80;;;;;;229647;1247;22435;-54
2023/09/20 06:08:09;;;;;;;3.30;2.40;;;23.20;53.90;;;;;;229581;1248;22282;-55
2023/09/20 06:13:12;;;;;;;2.10;1.90;;;23.30;53.80;;;;;;229561;1263;22364;-54
2023/09/20 06:18:15;;;;;;;2.30;2.10;;;23.30;54.60;;;;;;229574;1248;22384;-56
2023/09/20 06:23:18;;;;;;;3.70;2.50;;;23.40;54.50;;;;;;229509;1247;22295;-56
2023/09/20 06:28:24;;;;;;;4.00;2.30;;;23.40;54.60;;;;;;229508;1248;23078;-58
2023/09/20 06:33:27;;;;;;;4.60;2.30;;;23.70;55.20;;;;;;229565;1248;22281;-56
2023/09/20 06:38:30;;;;;;;7.80;2.10;;;23.70;54.90;;;;;;229511;1247;22266;-57
2023/09/20 06:43:33;;;;;;;3.20;2.30;;;23.70;55.10;;;;;;229425;1247;22669;-56
2023/09/20 06:48:37;;;;;;;6.40;2.40;;;23.80;55.20;;;;;;229510;1249;23085;-56
2023/09/20 06:53:40;;;;;;;3.80;2.00;;;23.80;55.20;;;;;;229491;1248;22273;-56
2023/09/20 06:58:45;;;;;;;4.60;2.10;;;24.00;55.00;;;;;;229623;1248;22278;-54
2023/09/20 07:03:47;;;;;;;4.20;2.30;;;24.10;55.00;;;;;;229603;1263;24095;-55
2023/09/20 07:08:50;;;;;;;3.40;2.20;;;24.10;55.30;;;;;;229543;1262;22334;-54
2023/09/20 07:13:53;;;;;;;5.70;3.00;;;24.20;57.80;;;;;;229559;1248;22290;-55
2023/09/20 07:18:58;;;;;;;3.40;2.70;;;24.30;58.00;;;;;;229525;1263;22380;-51
2023/09/20 07:24:02;;;;;;;4.50;2.10;;;24.30;57.50;;;;;;229583;1263;23245;-54
2023/09/20 07:29:05;;;;;;;5.40;2.30;;;24.50;57.10;;;;;;229503;1263;22270;-55
2023/09/20 07:34:23;;;;;;;2.90;1.80;;;24.40;57.00;;;;;;229577;1256;22285;-56
2023/09/20 07:39:25;;;;;;;3.40;2.30;;;23.90;58.30;;;;;;229599;1248;22322;-56
2023/09/20 07:44:31;;;;;;;2.70;2.00;;;23.90;58.80;;;;;;229645;1251;23174;-55
2023/09/20 07:49:34;;;;;;;3.70;1.90;;;23.90;58.80;;;;;;229618;1247;22283;-54
2023/09/20 07:54:37;;;;;;;1.90;1.80;;;23.90;58.60;;;;;;229629;1263;22360;-54
2023/09/20 07:59:42;;;;;;;2.50;1.80;;;24.00;58.40;;;;;;229588;1248;22260;-54
2023/09/20 08:04:44;;;;;;;4.40;2.30;;;24.00;58.50;;;;;;229550;1263;22456;-56
2023/09/20 08:09:47;;;;;;;1.90;1.80;;;24.10;58.20;;;;;;229648;1263;22357;-54
2023/09/20 08:14:51;;;;;;;3.90;2.40;;;24.10;58.20;;;;;;229625;1252;22291;-56
2023/09/20 08:19:53;;;;;;;3.80;1.60;;;24.20;58.10;;;;;;229610;1249;22288;-55
2023/09/20 09:03:02;;;;;;;5.10;1.80;;;24.70;56.90;;;;;;227833;1257;22304;-56
2023/09/20 09:08:06;;;;;;;6.20;2.30;;;24.70;57.20;;;;;;228012;1255;22274;-57
2023/09/20 09:13:09;;;;;;;1.80;1.50;;;24.90;56.70;;;;;;227939;1257;22343;-57
2023/09/20 09:18:18;;;;;;;12.10;2.20;;;24.90;56.60;;;;;;227990;1271;22311;-57
2023/09/20 09:23:35;;;;;;;2.00;1.30;;;25.10;56.30;;;;;;227949;1257;22289;-57
2023/09/20 09:28:40;;;;;;;3.40;1.50;;;25.10;56.40;;;;;;227955;1257;22340;-56
2023/09/20 09:33:43;;;;;;;3.80;1.60;;;25.00;56.50;;;;;;229134;1251;22363;-57
2023/09/20 09:38:47;;;;;;;4.10;1.50;;;25.20;56.30;;;;;;229484;1249;22250;-56
2023/09/20 09:43:58;;;;;;;3.00;1.80;;;25.20;56.40;;;;;;229514;1255;22281;-58
2023/09/20 09:49:02;;;;;;;;;;;25.20;56.20;;;;;;229500;1252;22323;-57
2023/09/20 09:54:07;;;;;;;4.70;1.70;;;25.20;56.70;;;;;;229537;1263;22279;-57
2023/09/20 09:59:14;;;;;;;2.90;1.80;;;25.30;56.50;;;;;;229481;1249;22677;-56
2023/09/20 10:04:19;;;;;;;1.80;1.70;;;25.40;56.20;;;;;;229380;1263;22285;-54
2023/09/20 10:09:27;;;;;;;3.60;1.90;;;25.50;56.80;;;;;;229341;1248;22284;-54
2023/09/20 10:14:30;;;;;;;4.30;1.70;;;25.40;56.40;;;;;;229372;1251;22255;-56
2023/09/20 10:19:36;;;;;;;2.30;1.50;;;25.40;56.40;;;;;;229457;1263;22242;-56
2023/09/20 10:25:00;;;;;;;2.10;1.70;;;25.40;56.30;;;;;;229496;1263;22264;-56
2023/09/20 10:30:11;;;;;;;2.10;1.60;;;25.50;56.30;;;;;;229609;1252;22364;-56
2023/09/20 10:35:22;;;;;;;2.20;1.30;;;25.50;56.30;;;;;;229547;1263;23101;-54
2023/09/20 10:40:55;;;;;;;1.60;1.50;;;25.60;56.00;;;;;;229585;1251;22271;-56
2023/09/20 10:46:00;;;;;;;2.80;1.80;;;25.70;56.00;;;;;;229589;1264;22262;-55
2023/09/20 10:51:06;;;;;;;2.40;1.70;;;25.70;55.90;;;;;;229588;1251;22344;-57
2023/09/20 10:56:10;;;;;;;2.10;1.70;;;25.80;55.90;;;;;;220835;1259;24164;-56
2023/09/20 11:01:16;;;;;;;2.00;1.60;;;25.70;56.00;;;;;;229517;1251;22387;-56
2023/09/20 11:06:19;;;;;;;2.70;1.60;;;25.70;56.00;;;;;;229600;1263;22942;-56
2023/09/20 11:11:23;;;;;;;4.20;1.40;;;25.80;55.80;;;;;;229575;1247;22298;-55
2023/09/20 11:16:27;;;;;;;1.60;1.40;;;25.90;55.70;;;;;;229558;1263;22278;-55
2023/09/20 11:21:30;;;;;;;2.10;1.60;;;26.00;55.50;;;;;;229591;1251;22334;-55
2023/09/20 11:26:33;;;;;;;2.30;1.30;;;26.00;55.40;;;;;;229589;1260;22286;-55
2023/09/20 11:31:37;;;;;;;1.70;1.40;;;26.00;55.30;;;;;;229611;1252;22279;-55
2023/09/20 11:36:44;;;;;;;1.40;1.30;;;26.10;55.30;;;;;;229566;1263;22305;-56
2023/09/20 11:41:47;;;;;;;2.30;1.20;;;26.10;55.30;;;;;;229568;1253;22353;-55
2023/09/20 11:46:53;;;;;;;1.60;1.20;;;26.00;55.30;;;;;;229569;1252;22311;-56
2023/09/20 11:51:58;;;;;;;1.80;1.20;;;26.10;55.20;;;;;;229551;1264;22276;-55
2023/09/20 11:57:02;;;;;;;1.70;1.20;;;26.10;55.20;;;;;;229604;1263;22988;-55
2023/09/20 12:02:07;;;;;;;1.50;1.30;;;26.20;55.20;;;;;;229611;1252;23474;-56
2023/09/20 12:07:09;;;;;;;1.30;1.20;;;26.20;55.10;;;;;;229570;1263;22316;-55
2023/09/20 12:12:12;;;;;;;2.20;1.30;;;26.20;55.20;;;;;;229471;1249;236199;-56
2023/09/20 12:17:15;;;;;;;2.10;1.10;;;26.20;55.10;;;;;;229631;1252;22220;-55
2023/09/20 12:22:20;;;;;;;1.20;1.10;;;26.30;55.00;;;;;;229607;1264;22282;-56
2023/09/20 12:27:23;;;;;;;1.40;1.20;;;26.40;54.90;;;;;;229588;1263;22351;-56
2023/09/20 12:32:26;;;;;;;3.40;1.10;;;26.40;54.90;;;;;;229524;1263;22446;-56
2023/09/20 12:37:30;;;;;;;2.00;1.20;;;26.40;54.90;;;;;;229565;1261;22352;-56
2023/09/20 12:42:34;;;;;;;3.60;1.60;;;26.40;54.80;;;;;;229555;1263;23140;-57
2023/09/20 12:47:42;;;;;;;1.40;1.10;;;26.40;54.80;;;;;;224424;1263;22523;-56
2023/09/20 12:52:48;;;;;;;1.20;1.20;;;26.50;55.10;;;;;;229465;1260;22403;-56
2023/09/20 12:57:51;;;;;;;1.80;1.20;;;26.50;55.00;;;;;;229556;1263;23324;-56
2023/09/20 13:02:55;;;;;;;1.30;1.20;;;26.60;54.90;;;;;;229522;1252;22275;-56
2023/09/20 13:07:59;;;;;;;2.70;1.60;;;26.70;54.90;;;;;;229524;1249;23139;-58
2023/09/20 13:13:03;;;;;;;2.60;1.10;;;26.80;54.60;;;;;;229443;1249;22299;-56
2023/09/20 13:18:06;;;;;;;5.30;1.40;;;26.70;55.10;;;;;;229373;1252;23252;-56
2023/09/20 13:23:10;;;;;;;6.10;1.20;;;26.70;55.10;;;;;;229384;1252;22760;-55
2023/09/20 13:28:13;;;;;;;4.30;1.40;;;26.80;55.00;;;;;;229386;1252;22278;-56
2023/09/20 13:33:17;;;;;;;2.00;1.00;;;26.80;55.10;;;;;;229484;1263;22437;-55
2023/09/20 13:38:21;;;;;;;1.30;1.20;;;26.80;55.00;;;;;;229491;1252;22254;-55
2023/09/20 13:43:23;;;;;;;4.00;1.20;;;27.00;54.90;;;;;;229544;1252;22251;-52
2023/09/20 13:48:26;;;;;;;11.80;1.40;;;26.90;54.80;;;;;;229613;1252;22332;-54
2023/09/20 13:53:29;;;;;;;2.90;1.30;;;27.00;54.50;;;;;;229625;1263;22277;-56
2023/09/20 13:58:33;;;;;;;2.80;1.30;;;27.10;54.70;;;;;;229521;1263;22306;-57
2023/09/20 14:03:37;;;;;;;2.30;1.10;;;27.00;54.70;;;;;;229686;1253;22297;-56
2023/09/20 14:08:40;;;;;;;3.50;1.10;;;26.90;54.90;;;;;;229556;1261;22411;-55
2023/09/20 14:13:42;;;;;;;1.40;1.20;;;27.00;54.90;;;;;;229570;1251;22404;-57
2023/09/20 14:18:46;;;;;;;2.50;1.20;;;26.90;55.10;;;;;;229524;1255;22277;-55
2023/09/20 14:23:48;;;;;;;5.20;1.30;;;26.90;55.80;;;;;;224100;1263;22532;-57
2023/09/20 14:28:51;;;;;;;6.30;1.80;;;26.80;57.90;;;;;;229346;1252;22385;-57
2023/09/20 14:33:54;;;;;;;8.00;1.50;;;26.70;60.00;;;;;;229309;1254;22269;-57
2023/09/20 14:38:58;;;;;;;2.70;1.60;;;26.70;59.60;;;;;;229493;1252;22276;-57
2023/09/20 14:44:04;;;;;;;1.20;1.10;;;26.80;59.80;;;;;;229522;1252;23129;-53
2023/09/20 14:49:11;;;;;;;2.80;1.50;;;26.90;59.50;;;;;;229534;1252;22272;-54
2023/09/20 14:54:14;;;;;;;6.40;1.30;;;26.80;58.70;;;;;;229523;1252;22995;-53
2023/09/20 14:59:17;;;;;;;5.10;1.80;;;26.80;57.30;;;;;;229555;1261;22691;-52
2023/09/20 15:04:19;;;;;;;2.30;1.70;;;26.60;53.90;;;;;;229300;1253;22297;-51
2023/09/20 15:09:22;;;;;;;3.80;1.60;;;26.70;53.60;;;;;;229564;1252;24274;-53
2023/09/20 15:14:26;;;;;;;3.10;2.10;;;26.60;54.60;;;;;;229546;1252;22351;-56
2023/09/20 15:19:29;;;;;;;3.80;1.60;;;26.60;53.10;;;;;;229509;1251;22251;-51
2023/09/20 15:24:32;;;;;;;5.40;1.90;;;26.50;52.70;;;;;;229552;1252;22256;-53
2023/09/20 15:29:34;;;;;;;6.30;2.10;;;26.50;51.00;;;;;;229555;1255;22261;-53
2023/09/20 15:34:37;;;;;;;1.80;1.70;;;26.50;51.40;;;;;;229538;1247;22403;-51
2023/09/20 15:39:40;;;;;;;9.70;2.50;;;26.40;51.00;;;;;;229523;1252;22433;-53
2023/09/20 15:44:51;;;;;;;5.70;2.10;;;26.30;51.00;;;;;;229544;1248;22251;-49
2023/09/20 15:49:55;;;;;;;3.70;2.00;;;26.40;50.80;;;;;;229590;1251;22267;-53
2023/09/20 15:54:58;;;;;;;4.70;2.00;;;26.10;50.90;;;;;;229528;1252;22349;-49
2023/09/20 16:00:01;;;;;;;5.50;2.50;;;26.20;50.50;;;;;;223488;1263;22599;-50
2023/09/20 16:05:09;;;;;;;4.80;2.00;;;26.10;51.20;;;;;;229573;1252;23708;-55
2023/09/20 16:10:17;;;;;;;3.50;2.00;;;26.00;51.40;;;;;;229574;1264;22298;-51
2023/09/20 16:15:22;;;;;;;3.10;2.00;;;26.30;50.80;;;;;;229547;1247;22251;-53
2023/09/20 16:20:25;;;;;;;5.20;2.00;;;26.20;51.20;;;;;;229552;1254;22379;-51
2023/09/20 16:25:29;;;;;;;10.10;4.30;;;26.00;52.30;;;;;;229542;1264;22241;-48
2023/09/20 16:30:32;;;;;;;5.20;3.90;;;26.10;53.80;;;;;;229598;1254;22217;-53
2023/09/20 16:35:35;;;;;;;7.00;3.80;;;26.20;54.60;;;;;;229567;1263;22276;-52
2023/09/20 16:40:38;;;;;;;8.80;4.10;;;25.90;53.80;;;;;;229586;1263;22830;-49
2023/09/20 16:45:43;;;;;;;10.20;4.90;;;25.80;54.20;;;;;;229582;1251;22363;-53
2023/09/20 16:50:50;;;;;;;10.00;4.50;;;25.60;54.60;;;;;;229572;1263;22276;-51
2023/09/20 16:55:53;;;;;;;9.30;4.70;;;25.50;54.70;;;;;;229608;1263;23423;-51
2023/09/20 17:00:56;;;;;;;13.30;4.70;;;25.50;54.80;;;;;;229572;1263;22268;-53
2023/09/20 17:06:00;;;;;;;4.40;4.00;;;25.50;54.70;;;;;;229521;1263;23084;-52
2023/09/20 17:11:04;;;;;;;4.70;3.60;;;25.50;54.00;;;;;;229611;1252;22328;-51
2023/09/20 17:16:08;;;;;;;5.60;4.20;;;25.40;54.30;;;;;;229567;1263;22339;-52
2023/09/20 17:21:11;;;;;;;4.40;3.70;;;25.20;54.70;;;;;;229552;1256;22288;-52
2023/09/20 17:26:14;;;;;;;8.30;3.00;;;25.10;54.80;;;;;;229536;1264;22319;-49
2023/09/20 17:31:19;;;;;;;10.70;3.70;;;25.10;55.00;;;;;;229564;1253;22233;-50
2023/09/20 17:36:22;;;;;;;3.50;3.10;;;25.00;55.10;;;;;;229516;1257;22485;-50
2023/09/20 17:41:29;;;;;;;4.90;3.00;;;25.00;55.40;;;;;;221734;1261;25259;-51
2023/09/20 17:46:35;;;;;;;6.50;3.30;;;24.90;55.70;;;;;;222219;1264;22522;-53
2023/09/20 17:51:38;;;;;;;6.60;2.80;;;24.70;56.30;;;;;;229587;1264;22289;-50
2023/09/20 17:56:46;;;;;;;4.30;2.90;;;24.80;56.30;;;;;;224332;1263;22637;-49
2023/09/20 18:01:50;;;;;;;7.30;3.10;;;24.90;56.00;;;;;;221812;1254;23089;-49
2023/09/20 18:06:55;;;;;;;6.60;3.00;;;24.60;56.80;;;;;;221047;1254;24368;-51
2023/09/20 18:12:04;;;;;;;6.30;3.30;;;24.50;57.00;;;;;;224285;1260;24340;-51
2023/09/20 18:17:12;;;;;;;4.90;3.30;;;24.40;57.10;;;;;;221706;1257;24070;-51
2023/09/20 18:22:25;;;;;;;7.00;3.60;;;24.30;57.40;;;;;;223775;1248;22913;-50
2023/09/20 18:27:34;;;;;;;7.80;3.30;;;24.20;57.10;;;;;;229448;1264;22269;-52
2023/09/20 18:32:38;;;;;;;3.50;3.10;;;24.20;56.80;;;;;;229520;1263;22265;-52
2023/09/20 18:37:45;;;;;;;8.20;3.90;;;24.20;56.70;;;;;;229491;1264;22258;-50
2023/09/20 18:42:51;;;;;;;4.90;4.00;;;24.30;56.40;;;;;;229610;1264;22730;-52
2023/09/20 18:47:55;;;;;;;5.80;3.20;;;24.20;56.40;;;;;;229559;1263;22383;-53
2023/09/20 18:52:58;;;;;;;11.10;3.40;;;24.10;56.90;;;;;;229578;1264;22303;-52
2023/09/20 18:58:02;;;;;;;4.80;3.50;;;24.10;56.90;;;;;;229575;1264;22282;-51
2023/09/20 19:03:05;;;;;;;4.40;3.30;;;24.10;57.10;;;;;;229556;1263;22296;-51
2023/09/20 19:08:12;;;;;;;6.50;4.00;;;24.00;56.70;;;;;;226360;1260;25020;-50
2023/09/20 19:13:19;;;;;;;8.30;4.20;;;23.80;57.10;;;;;;228938;1251;22819;-54
2023/09/20 19:18:26;;;;;;;6.20;3.80;;;24.20;57.00;;;;;;224214;1263;25950;-52
2023/09/20 19:23:33;;;;;;;7.20;3.80;;;24.50;56.00;;;;;;229541;1248;22283;-53
2023/09/20 19:28:37;;;;;;;5.30;3.80;;;24.30;56.50;;;;;;224286;1251;22674;-53
2023/09/20 19:33:43;;;;;;;5.80;3.80;;;24.20;56.70;;;;;;223776;1263;22913;-56
2023/09/20 19:38:53;;;;;;;7.40;3.50;;;24.10;57.30;;;;;;226792;1264;22514;-56
2023/09/20 19:43:59;;;;;;;6.70;3.80;;;24.30;57.40;;;;;;229141;1264;25367;-53
2023/09/20 19:49:05;;;;;;;6.70;3.50;;;24.30;58.30;;;;;;229353;1250;22387;-51
2023/09/20 19:54:13;;;;;;;10.60;4.60;;;24.60;56.60;;;;;;222058;1250;24197;-50
2023/09/20 19:59:18;;;;;;;4.10;3.60;;;24.60;57.30;;;;;;229199;1264;22288;-53
2023/09/20 20:04:22;;;;;;;6.70;4.10;;;24.50;57.20;;;;;;229163;1264;22344;-56
2023/09/20 20:09:26;;;;;;;7.70;3.90;;;24.40;57.40;;;;;;225890;1261;22510;-55
2023/09/20 20:14:30;;;;;;;10.20;6.00;;;24.40;57.90;;;;;;229039;1251;22258;-54
2023/09/20 20:19:34;;;;;;;8.30;3.90;;;24.50;57.50;;;;;;229145;1261;22254;-57
2023/09/20 20:24:39;;;;;;;6.00;3.70;;;24.70;57.40;;;;;;229172;1251;22375;-56
2023/09/20 20:29:48;;;;;;;8.30;3.80;;;24.70;57.50;;;;;;222113;1248;22515;-57
2023/09/20 20:34:51;;;;;;;4.40;3.80;;;24.80;58.10;;;;;;229124;1264;22268;-55
2023/09/20 20:39:55;;;;;;;6.10;3.80;;;24.70;57.50;;;;;;229105;1254;22344;-57
2023/09/20 20:45:01;;;;;;;7.60;3.90;;;24.80;57.70;;;;;;229037;1264;23285;-57
2023/09/20 20:50:05;;;;;;;5.20;4.40;;;24.90;57.80;;;;;;229144;1251;22277;-58
2023/09/20 20:55:09;;;;;;;6.70;3.50;;;24.90;57.80;;;;;;229192;1249;22283;-56
2023/09/20 21:00:15;;;;;;;5.60;4.00;;;24.90;57.70;;;;;;229194;1264;22766;-56
2023/09/20 21:05:19;;;;;;;5.10;3.90;;;24.90;57.00;;;;;;229234;1251;22341;-55
2023/09/20 21:10:21;;;;;;;6.70;4.00;;;24.90;57.70;;;;;;229186;1264;22733;-56
2023/09/20 21:15:25;;;;;;;14.40;7.30;;;24.90;58.60;;;;;;229204;1251;22282;-57
2023/09/20 21:20:29;;;;;;;7.80;4.00;;;25.10;60.30;;;;;;229117;1249;22378;-58
2023/09/20 21:25:33;;;;;;;7.70;4.40;;;24.90;60.40;;;;;;227833;1249;22541;-57
2023/09/20 21:30:38;;;;;;;6.60;4.60;;;24.90;60.90;;;;;;229108;1248;22262;-58
2023/09/20 21:35:41;;;;;;;9.10;4.20;;;24.90;60.90;;;;;;229163;1248;22314;-58
2023/09/20 21:40:44;;;;;;;7.00;4.70;;;24.90;60.50;;;;;;229190;1253;22277;-57
2023/09/20 21:45:47;;;;;;;7.50;4.10;;;24.90;60.50;;;;;;229286;1250;22285;-57
2023/09/20 21:50:51;;;;;;;6.80;4.10;;;24.90;60.10;;;;;;223081;1248;24244;-57
2023/09/20 21:55:57;;;;;;;4.90;4.00;;;24.90;60.10;;;;;;228953;1256;23889;-57
2023/09/20 22:01:02;;;;;;;7.80;3.80;;;24.80;60.30;;;;;;229273;1249;22260;-55
2023/09/20 22:06:07;;;;;;;5.80;4.20;;;24.90;59.80;;;;;;224653;1252;22546;-55
2023/09/20 22:11:14;;;;;;;6.10;3.90;;;24.90;59.80;;;;;;229202;1252;22368;-55
2023/09/20 22:16:17;;;;;;;8.20;4.00;;;24.90;59.50;;;;;;229212;1249;22335;-56
2023/09/20 22:21:20;;;;;;;5.20;3.70;;;24.90;59.60;;;;;;229240;1248;22279;-56
2023/09/20 22:26:23;;;;;;;7.10;4.10;;;25.00;59.50;;;;;;229224;1250;22276;-55
2023/09/20 22:31:26;;;;;;;5.20;4.00;;;25.00;59.00;;;;;;229291;1249;22396;-55
2023/09/20 22:36:28;;;;;;;6.90;4.10;;;24.90;59.20;;;;;;229226;1248;22266;-55
2023/09/20 22:41:31;;;;;;;6.80;4.20;;;25.00;59.30;;;;;;229283;1249;22410;-55
2023/09/20 22:46:40;;;;;;;3.90;3.50;;;25.00;59.10;;;;;;229262;1254;22281;-57
2023/09/20 22:51:44;;;;;;;4.70;3.60;;;25.10;58.90;;;;;;229230;1249;22679;-57
2023/09/20 22:56:51;;;;;;;4.30;3.30;;;25.10;59.00;;;;;;229249;1253;22292;-56
2023/09/20 23:01:54;;;;;;;3.80;3.40;;;25.10;59.20;;;;;;229233;1249;22309;-58
2023/09/20 23:06:57;;;;;;;4.80;3.90;;;25.10;59.30;;;;;;229284;1249;22417;-58
2023/09/20 23:12:00;;;;;;;5.50;3.80;;;25.10;59.10;;;;;;229268;1249;22252;-57
2023/09/20 23:17:08;;;;;;;4.00;3.60;;;25.30;58.70;;;;;;229313;1248;22268;-57
2023/09/20 23:22:17;;;;;;;5.10;3.40;;;25.20;59.20;;;;;;229292;1248;22316;-56
2023/09/20 23:27:22;;;;;;;4.70;3.90;;;25.10;59.20;;;;;;229196;1251;22299;-58
2023/09/20 23:32:27;;;;;;;5.20;3.70;;;25.20;59.00;;;;;;229268;1248;22303;-55
2023/09/20 23:37:44;;;;;;;3.30;3.00;;;25.10;59.10;;;;;;229295;1249;23104;-56
2023/09/20 23:42:47;;;;;;;3.30;3.00;;;25.10;59.20;;;;;;229305;1251;22315;-57
2023/09/20 23:47:50;;;;;;;3.70;2.80;;;25.30;59.10;;;;;;229235;1256;22509;-58
2023/09/20 23:52:53;;;;;;;4.10;3.70;;;25.00;59.40;;;;;;229242;1248;22891;-57
2023/09/20 23:57:56;;;;;;;2.90;2.70;;;25.10;59.20;;;;;;229273;1256;24191;-57
